createdAt,value
2019-06-15T00:00:55.917Z,6.20
2019-06-15T00:06:00.137Z,6.67
2019-06-15T00:11:05.635Z,6.27
2019-06-15T00:16:09.855Z,5.93
2019-06-15T00:21:14.308Z,6.33
2019-06-15T00:26:18.599Z,6.53
2019-06-15T00:31:22.914Z,6.60
2019-06-15T00:36:26.893Z,6.73
2019-06-15T00:41:30.771Z,7.20
2019-06-15T00:46:34.907Z,6.97
2019-06-15T00:51:38.783Z,7.37
2019-06-15T00:56:43.246Z,7.13
2019-06-15T01:01:47.209Z,7.00
2019-06-15T01:06:51.419Z,7.40
2019-06-15T01:11:55.641Z,6.70
2019-06-15T01:17:00.161Z,7.53
2019-06-15T01:22:04.527Z,8.63
2019-06-15T01:27:08.491Z,8.07
2019-06-15T01:32:12.610Z,8.43
2019-06-15T01:37:17.058Z,7.63
2019-06-15T01:42:21.289Z,8.57
2019-06-15T01:47:25.479Z,8.93
2019-06-15T01:52:29.574Z,8.67
2019-06-15T01:57:33.457Z,8.30
2019-06-15T02:02:37.345Z,8.40
2019-06-15T02:07:41.517Z,8.47
2019-06-15T02:12:46.042Z,9.17
2019-06-15T02:17:50.332Z,9.20
2019-06-15T02:22:54.204Z,9.27
2019-06-15T02:27:58.306Z,9.50
2019-06-15T02:33:02.487Z,9.90
2019-06-15T02:38:06.708Z,9.63
2019-06-15T02:43:10.925Z,9.77
2019-06-15T02:48:14.814Z,10.67
2019-06-15T02:53:18.707Z,10.70
2019-06-15T02:58:23.169Z,10.77
2019-06-15T03:03:27.370Z,10.53
2019-06-15T03:08:31.653Z,9.27
2019-06-15T03:13:36.306Z,9.73
2019-06-15T03:18:40.923Z,9.90
2019-06-15T03:23:45.226Z,9.23
2019-06-15T03:28:49.773Z,9.97
2019-06-15T03:33:53.742Z,9.67
2019-06-15T03:38:58.178Z,9.30
2019-06-15T03:44:02.492Z,8.43
2019-06-15T03:49:07.042Z,7.40
2019-06-15T03:54:11.334Z,6.83
2019-06-15T03:59:15.902Z,6.40
2019-06-15T04:04:20.105Z,6.20
2019-06-15T04:09:24.619Z,6.10
2019-06-15T04:14:28.825Z,6.03
2019-06-15T04:19:32.736Z,6.63
2019-06-15T04:24:37.197Z,6.37
2019-06-15T04:29:41.162Z,6.20
2019-06-15T04:34:45.047Z,6.00
2019-06-15T04:39:49.503Z,6.73
2019-06-15T04:44:54.045Z,6.60
2019-06-15T04:49:58.241Z,6.27
2019-06-15T04:55:02.486Z,6.17
2019-06-15T05:00:10.084Z,5.97
2019-06-15T05:05:14.302Z,6.20
2019-06-15T05:10:18.180Z,6.23
2019-06-15T05:21:29.687Z,5.87
2019-06-15T05:26:35.029Z,5.70
2019-06-15T05:31:38.996Z,6.23
2019-06-15T05:36:43.444Z,5.70
2019-06-15T05:41:48.161Z,5.90
2019-06-15T05:46:52.372Z,5.70
2019-06-15T05:51:56.826Z,5.70
2019-06-15T05:57:01.124Z,6.23
2019-06-15T06:02:05.145Z,5.80
2019-06-15T06:07:09.238Z,6.33
2019-06-15T06:12:13.347Z,6.23
2019-06-15T06:17:17.486Z,5.60
2019-06-15T06:22:21.598Z,5.60
2019-06-15T06:27:36.162Z,5.80
2019-06-15T06:32:31.619Z,4.90
2019-06-15T06:37:36.921Z,4.83
2019-06-15T06:42:41.030Z,5.10
2019-06-15T06:47:46.038Z,4.70
2019-06-15T06:52:49.905Z,4.60
2019-06-15T06:57:57.141Z,4.00
2019-06-15T07:02:59.346Z,4.70
2019-06-15T07:08:03.475Z,4.40
2019-06-15T07:13:08.300Z,4.17
2019-06-15T07:18:13.121Z,4.00
2019-06-15T07:23:17.342Z,3.83
2019-06-15T07:28:21.636Z,3.83
2019-06-15T07:33:25.827Z,3.83
2019-06-15T07:38:30.034Z,3.80
2019-06-15T07:43:34.254Z,3.37
2019-06-15T07:48:38.718Z,3.50
2019-06-15T07:53:43.029Z,2.93
2019-06-15T07:58:47.277Z,3.17
2019-06-15T08:03:51.773Z,2.93
2019-06-15T08:08:55.871Z,3.03
2019-06-15T08:14:00.307Z,2.50
2019-06-15T08:19:04.271Z,2.70
2019-06-15T08:24:08.148Z,2.83
2019-06-15T08:29:12.251Z,3.07
2019-06-15T08:34:16.134Z,2.60
2019-06-15T08:39:20.002Z,1.80
2019-06-15T08:44:23.878Z,1.80
2019-06-15T08:49:27.750Z,1.60
2019-06-15T08:54:31.863Z,1.70
2019-06-15T08:59:36.300Z,1.30
2019-06-15T09:04:41.206Z,1.37
2019-06-15T09:09:45.066Z,1.10
2019-06-15T09:14:49.532Z,1.10
2019-06-15T09:19:53.811Z,1.30
2019-06-15T09:24:58.839Z,1.40
2019-06-15T09:30:02.970Z,1.07
2019-06-15T09:35:07.218Z,1.30
2019-06-15T09:40:11.897Z,0.90
2019-06-15T09:45:16.402Z,1.00
2019-06-15T09:50:20.379Z,1.10
2019-06-15T09:55:24.836Z,1.20
2019-06-15T10:00:28.789Z,1.37
2019-06-15T10:05:32.677Z,1.50
2019-06-15T10:10:37.838Z,1.30
2019-06-15T10:15:41.803Z,1.70
2019-06-15T10:20:45.998Z,1.90
2019-06-15T10:25:50.490Z,1.40
2019-06-15T10:30:54.525Z,1.50
2019-06-15T10:35:58.385Z,1.50
2019-06-15T10:41:02.262Z,1.60
2019-06-15T10:46:06.714Z,1.60
2019-06-15T10:51:11.074Z,1.40
2019-06-15T10:56:15.700Z,1.50
2019-06-15T11:01:19.962Z,1.80
2019-06-15T11:06:24.490Z,1.70
2019-06-15T11:11:28.921Z,1.40
2019-06-15T11:16:32.786Z,1.60
2019-06-15T11:21:36.978Z,1.57
2019-06-15T11:26:42.091Z,1.87
2019-06-15T11:31:46.455Z,1.70
2019-06-15T11:36:50.655Z,1.70
2019-06-15T11:41:55.105Z,1.80
2019-06-15T11:46:59.065Z,1.90
2019-06-15T11:52:03.173Z,1.50
2019-06-15T11:57:07.031Z,1.80
2019-06-15T12:02:11.339Z,1.90
2019-06-15T12:07:15.541Z,1.90
2019-06-15T12:12:19.646Z,1.60
2019-06-15T12:17:23.527Z,1.80
2019-06-15T12:22:27.874Z,1.90
2019-06-15T12:27:32.038Z,1.83
2019-06-15T12:32:36.624Z,1.70
2019-06-15T12:37:41.542Z,1.82
2019-06-15T12:42:45.931Z,1.80
2019-06-15T12:47:50.218Z,1.80
2019-06-15T12:52:54.516Z,1.80
2019-06-15T12:57:58.810Z,2.03
2019-06-15T13:03:03.619Z,2.10
2019-06-15T13:08:07.759Z,1.93
2019-06-15T13:13:12.038Z,2.10
2019-06-15T13:18:16.327Z,2.10
2019-06-15T13:23:20.301Z,2.10
2019-06-15T13:28:24.527Z,2.13
2019-06-15T13:33:28.860Z,2.33
2019-06-15T13:38:33.447Z,2.10
2019-06-15T13:43:37.767Z,2.27
2019-06-15T13:48:42.098Z,2.23
2019-06-15T13:53:46.095Z,2.30
2019-06-15T13:58:50.207Z,2.30
2019-06-15T14:03:54.332Z,2.03
2019-06-15T14:08:58.253Z,2.40
2019-06-15T14:14:02.727Z,2.30
2019-06-15T14:19:06.713Z,2.50
2019-06-15T14:24:10.879Z,2.37
2019-06-15T14:29:17.450Z,2.17
2019-06-15T14:34:21.084Z,2.30
2019-06-15T14:39:26.082Z,2.47
2019-06-15T14:44:30.309Z,2.40
2019-06-15T14:49:35.851Z,2.20
2019-06-15T14:54:40.055Z,2.47
2019-06-15T14:59:55.452Z,2.23
2019-06-15T15:04:50.597Z,2.60
2019-06-15T15:09:56.753Z,2.40
2019-06-15T15:15:00.841Z,2.60
2019-06-15T15:20:07.207Z,3.00
2019-06-15T15:25:11.297Z,2.70
2019-06-15T15:30:26.872Z,3.03
2019-06-15T15:35:30.285Z,2.80
2019-06-15T15:40:36.508Z,2.50
2019-06-15T15:45:40.749Z,2.63
2019-06-15T15:50:46.868Z,2.47
2019-06-15T15:55:51.062Z,2.63
2019-06-15T16:00:57.071Z,3.10
2019-06-15T16:06:01.096Z,2.60
2019-06-15T16:11:04.953Z,2.80
2019-06-15T16:16:08.836Z,2.33
2019-06-15T16:21:13.678Z,2.50
2019-06-15T16:26:18.894Z,2.77
2019-06-15T16:31:25.971Z,2.47
2019-06-15T16:36:28.577Z,2.73
2019-06-15T16:41:33.024Z,2.33
2019-06-15T16:46:37.083Z,2.50
2019-06-15T16:51:42.355Z,2.47
2019-06-15T16:56:46.780Z,2.50
2019-06-15T17:01:50.727Z,2.47
2019-06-15T17:06:56.586Z,3.10
2019-06-15T17:12:00.866Z,3.50
2019-06-15T17:17:05.622Z,3.43
2019-06-15T17:22:18.699Z,2.57
2019-06-15T17:27:17.050Z,2.93
2019-06-15T17:32:20.809Z,2.83
2019-06-15T17:37:26.683Z,2.77
2019-06-15T17:42:31.055Z,2.40
2019-06-15T17:47:35.174Z,2.20
2019-06-15T17:52:40.217Z,2.37
2019-06-15T17:57:46.495Z,2.30
2019-06-15T18:02:50.771Z,2.40
2019-06-15T18:07:58.537Z,2.40
2019-06-15T18:13:00.594Z,2.30
2019-06-15T18:18:07.161Z,2.60
2019-06-15T18:23:11.142Z,2.47
2019-06-15T18:28:17.646Z,2.30
2019-06-15T18:33:21.689Z,2.80
2019-06-15T18:38:26.113Z,2.87
2019-06-15T18:43:30.269Z,2.70
2019-06-15T18:48:36.054Z,2.90
2019-06-15T18:53:40.838Z,3.03
2019-06-15T18:58:44.721Z,2.73
2019-06-15T19:03:48.934Z,2.50
2019-06-15T19:08:53.474Z,2.60
2019-06-15T19:13:57.787Z,2.40
2019-06-15T19:19:02.347Z,2.70
2019-06-15T19:24:07.373Z,2.77
2019-06-15T19:29:11.429Z,3.00
2019-06-15T19:34:16.723Z,2.97
2019-06-15T19:39:21.462Z,2.40
2019-06-15T19:44:26.773Z,3.50
2019-06-15T19:49:33.130Z,3.00
2019-06-15T19:54:37.431Z,3.13
2019-06-15T19:59:41.414Z,2.80
2019-06-15T20:04:59.150Z,2.90
2019-06-15T20:09:51.151Z,3.00
2019-06-15T20:14:56.705Z,2.80
2019-06-15T20:20:01.185Z,3.33
2019-06-15T20:25:06.764Z,3.00
2019-06-15T20:30:12.702Z,2.50
2019-06-15T20:35:21.262Z,3.20
2019-06-15T20:40:23.384Z,3.10
2019-06-15T20:45:27.591Z,3.03
2019-06-15T20:50:32.133Z,3.07
2019-06-15T20:55:37.259Z,2.90
2019-06-15T21:00:41.990Z,3.30
2019-06-15T21:05:47.663Z,3.10
2019-06-15T21:10:51.531Z,3.73
2019-06-15T21:15:56.816Z,2.87
2019-06-15T21:21:01.233Z,3.00
2019-06-15T21:26:06.827Z,3.10
2019-06-15T21:31:12.667Z,3.40
2019-06-15T21:36:16.547Z,3.60
2019-06-15T21:41:20.431Z,4.20
2019-06-15T21:46:26.641Z,4.07
2019-06-15T21:51:30.375Z,4.10
2019-06-15T21:56:36.938Z,3.93
2019-06-15T22:01:41.509Z,4.00
2019-06-15T22:06:47.702Z,3.87
2019-06-15T22:11:51.721Z,3.80
2019-06-15T22:16:56.951Z,3.33
2019-06-15T22:22:01.305Z,3.30
2019-06-15T22:27:06.598Z,3.23
2019-06-15T22:32:11.207Z,3.40
2019-06-15T22:37:17.367Z,3.43
2019-06-15T22:42:20.986Z,3.67
2019-06-15T22:47:27.058Z,3.33
2019-06-15T22:52:31.543Z,3.60
2019-06-15T22:57:37.170Z,4.10
2019-06-15T23:02:42.120Z,3.60
2019-06-15T23:07:47.188Z,3.50
2019-06-15T23:12:51.905Z,3.90
2019-06-15T23:17:57.178Z,4.07
2019-06-15T23:23:01.593Z,3.67
2019-06-15T23:28:07.098Z,3.57
2019-06-15T23:33:11.554Z,3.67
2019-06-15T23:38:16.016Z,3.50
2019-06-15T23:43:19.862Z,3.57
2019-06-15T23:48:26.495Z,3.53
2019-06-15T23:53:29.544Z,3.60
2019-06-15T23:58:34.006Z,3.57
